Luray, Missouri
Current Conditions -  °F | °C
As of 8:55 PM on Saturday 25 Oct 2014 (Local Time) from KEOK Reporting Station
Clear Clear  
Wind Chill: 61°   Ceiling: Unl
Heat Index: 61°   Visibility: 10mi
Dew Point: 41°   Wind: 6mph
Humidity: 48%   Direction: 360°N
Pressure: 30.03"   Gusts: NA
Location:  40.45°N, 91.88°W
Report Text: KEOK 260155Z AUTO 36005KT 10SM CLR 16/05 A3003 RMK AO2
Loading
Personal Weather Stations






























Interactive Weather Map
Tropical Storm Tracking
New forecast layout! Learn more

10-Day Weather Forecast

Advertisements
Track Severe Weather on mobile